createdAt,value
2018-04-24T00:01:24.729Z,40.30
2018-04-24T00:02:56.543Z,44.40
2018-04-24T00:04:28.358Z,43.60
2018-04-24T00:06:00.173Z,41.50
2018-04-24T00:07:31.986Z,41.20
2018-04-24T00:09:03.802Z,39.80
2018-04-24T00:10:35.616Z,42.30
2018-04-24T00:12:07.432Z,46.80
2018-04-24T00:13:39.244Z,47.20
2018-04-24T00:15:11.060Z,45.00
2018-04-24T00:16:43.074Z,48.00
2018-04-24T00:18:14.698Z,54.00
2018-04-24T00:19:46.502Z,55.30
2018-04-24T00:21:18.317Z,51.50
2018-04-24T00:22:50.686Z,47.40
2018-04-24T00:24:21.945Z,45.40
2018-04-24T00:25:53.760Z,49.00
2018-04-24T00:27:25.576Z,51.80
2018-04-24T00:28:57.392Z,45.40
2018-04-24T00:30:29.202Z,47.00
2018-04-24T00:32:01.015Z,38.70
2018-04-24T00:33:32.829Z,42.50
2018-04-24T00:35:04.743Z,45.80
2018-04-24T00:36:36.456Z,46.20
2018-04-24T00:38:08.271Z,48.60
2018-04-24T00:39:40.083Z,43.80
2018-04-24T00:41:11.897Z,40.50
2018-04-24T00:42:43.711Z,46.10
2018-04-24T00:44:15.523Z,49.20
2018-04-24T00:45:47.354Z,49.30
2018-04-24T00:47:19.149Z,46.90
2018-04-24T00:48:51.267Z,48.40
2018-04-24T00:50:22.777Z,48.00
2018-04-24T00:51:54.589Z,48.60
2018-04-24T00:53:26.503Z,50.80
2018-04-24T00:54:58.216Z,57.70
2018-04-24T00:56:30.029Z,57.30
2018-04-24T00:58:01.844Z,58.60
2018-04-24T00:59:33.655Z,58.50
2018-04-24T01:01:05.493Z,59.10
2018-04-24T01:02:37.285Z,66.40
2018-04-24T01:04:09.096Z,64.90
2018-04-24T01:05:40.909Z,59.30
2018-04-24T01:07:12.723Z,67.20
2018-04-24T01:08:44.536Z,77.70
2018-04-24T01:10:16.349Z,67.70
2018-04-24T01:11:48.263Z,76.30
2018-04-24T01:13:19.977Z,75.70
2018-04-24T01:14:51.791Z,83.30
2018-04-24T01:16:23.603Z,91.60
2018-04-24T01:17:55.517Z,73.90
2018-04-24T01:19:27.229Z,70.00
2018-04-24T01:20:59.044Z,67.00
2018-04-24T01:22:30.855Z,71.70
2018-04-24T01:24:02.668Z,68.50
2018-04-24T01:25:34.483Z,82.40
2018-04-24T01:27:06.295Z,76.60
2018-04-24T01:28:38.110Z,71.20
2018-04-24T01:30:10.022Z,80.30
2018-04-24T01:31:41.737Z,79.00
2018-04-24T01:33:13.549Z,81.30
2018-04-24T01:34:45.362Z,80.50
2018-04-24T01:36:17.182Z,78.00
2018-04-24T01:37:48.988Z,84.60
2018-04-24T01:39:20.802Z,79.20
2018-04-24T01:40:52.616Z,89.70
2018-04-24T01:42:24.427Z,88.30
2018-04-24T01:43:56.241Z,84.90
2018-04-24T01:45:28.053Z,82.70
2018-04-24T01:46:59.867Z,81.20
2018-04-24T01:48:31.883Z,67.20
2018-04-24T01:50:03.493Z,80.40
2018-04-24T01:51:35.306Z,81.10
2018-04-24T01:53:07.119Z,80.40
2018-04-24T01:54:38.931Z,86.00
2018-04-24T01:56:10.751Z,78.00
2018-04-24T01:57:42.558Z,90.70
2018-04-24T01:59:14.374Z,81.80
2018-04-24T02:00:46.186Z,97.30
2018-04-24T02:02:17.998Z,97.90
2018-04-24T02:03:49.811Z,90.20
2018-04-24T02:05:21.623Z,91.20
2018-04-24T02:06:53.537Z,90.30
2018-04-24T02:08:25.249Z,76.00
2018-04-24T02:09:57.062Z,76.80
2018-04-24T02:11:28.875Z,82.60
2018-04-24T02:13:00.690Z,83.60
2018-04-24T02:14:32.502Z,79.60
2018-04-24T02:16:04.315Z,78.40
2018-04-24T02:17:36.130Z,68.50
2018-04-24T02:19:08.099Z,72.10
2018-04-24T02:20:39.755Z,63.80
2018-04-24T02:22:11.569Z,68.30
2018-04-24T02:23:43.382Z,67.10
2018-04-24T02:25:15.296Z,64.50
2018-04-24T02:26:47.009Z,65.60
2018-04-24T02:28:18.828Z,68.60
2018-04-24T02:29:50.639Z,69.00
2018-04-24T02:31:22.450Z,62.80
2018-04-24T02:32:54.264Z,58.70
2018-04-24T02:34:26.082Z,60.10
2018-04-24T02:35:57.891Z,66.50
2018-04-24T02:37:29.704Z,62.70
2018-04-24T02:39:01.521Z,61.00
2018-04-24T02:40:33.334Z,60.70
2018-04-24T02:42:05.147Z,61.70
2018-04-24T02:43:37.063Z,66.30
2018-04-24T02:45:08.775Z,64.50
2018-04-24T02:46:40.588Z,77.30
2018-04-24T02:48:12.403Z,83.70
2018-04-24T02:49:44.315Z,77.50
2018-04-24T02:51:16.033Z,92.20
2018-04-24T02:52:47.918Z,87.20
2018-04-24T02:54:19.658Z,92.00
2018-04-24T02:55:51.720Z,92.90
2018-04-24T02:57:23.283Z,104.50
2018-04-24T02:58:55.097Z,104.80
2018-04-24T03:00:26.910Z,102.00
2018-04-24T03:01:58.824Z,117.50
2018-04-24T03:05:02.361Z,102.90
2018-04-24T03:06:34.165Z,95.60
2018-04-24T03:08:05.979Z,101.60
2018-04-24T03:09:37.798Z,108.90
2018-04-24T03:11:09.606Z,108.70
2018-04-24T03:12:41.417Z,109.30
2018-04-24T03:14:13.231Z,108.70
2018-04-24T03:15:45.043Z,111.80
2018-04-24T03:17:16.861Z,107.20
2018-04-24T03:18:48.670Z,107.10
2018-04-24T03:20:20.683Z,113.00
2018-04-24T03:21:52.297Z,118.80
2018-04-24T03:23:24.109Z,117.70
2018-04-24T03:24:55.922Z,127.30
2018-04-24T03:26:27.989Z,121.80
2018-04-24T03:27:59.550Z,130.60
2018-04-24T03:29:31.362Z,126.20
2018-04-24T03:31:03.177Z,127.20
2018-04-24T03:32:34.988Z,127.10
2018-04-24T03:34:06.802Z,132.90
2018-04-24T03:35:38.615Z,124.20
2018-04-24T03:37:10.429Z,121.50
2018-04-24T03:38:42.340Z,124.70
2018-04-24T03:40:14.054Z,122.90
2018-04-24T03:41:45.867Z,120.70
2018-04-24T03:44:49.495Z,131.10
2018-04-24T03:46:21.305Z,121.90
2018-04-24T03:47:53.118Z,121.40
2018-04-24T03:49:24.931Z,118.30
2018-04-24T03:50:56.894Z,126.20
2018-04-24T03:52:28.556Z,128.40
2018-04-24T03:54:00.368Z,132.90
2018-04-24T03:55:32.181Z,121.60
2018-04-24T03:57:04.096Z,124.90
2018-04-24T03:58:35.806Z,119.50
2018-04-24T04:00:07.620Z,140.90
2018-04-24T04:01:39.437Z,142.80
2018-04-24T04:03:11.247Z,142.30
2018-04-24T04:04:43.065Z,140.20
2018-04-24T04:06:14.869Z,145.00
2018-04-24T04:07:46.682Z,147.60
2018-04-24T04:09:18.494Z,152.60
2018-04-24T04:10:50.306Z,143.50
2018-04-24T04:12:22.119Z,136.20
2018-04-24T04:13:53.931Z,141.60
2018-04-24T04:15:25.844Z,145.10
2018-04-24T04:16:57.555Z,155.80
2018-04-24T04:18:29.368Z,155.00
2018-04-24T04:20:01.181Z,147.40
2018-04-24T04:21:33.093Z,136.60
2018-04-24T04:23:04.805Z,140.30
2018-04-24T04:24:36.618Z,139.40
2018-04-24T04:26:08.434Z,135.80
2018-04-24T04:27:40.748Z,139.90
2018-04-24T04:29:12.054Z,147.40
2018-04-24T04:30:43.868Z,131.40
2018-04-24T04:32:15.679Z,145.90
2018-04-24T04:33:47.591Z,136.80
2018-04-24T04:35:19.303Z,145.40
2018-04-24T04:36:51.116Z,137.70
2018-04-24T04:38:22.928Z,142.60
2018-04-24T04:39:54.739Z,137.70
2018-04-24T04:41:26.583Z,147.50
2018-04-24T04:42:58.371Z,153.70
2018-04-24T04:44:30.177Z,169.40
2018-04-24T04:46:01.991Z,153.40
2018-04-24T04:47:33.801Z,198.30
2018-04-24T04:49:05.615Z,161.60
2018-04-24T04:50:37.426Z,178.80
2018-04-24T04:52:09.339Z,158.30
2018-04-24T04:53:41.050Z,161.50
2018-04-24T04:55:12.863Z,154.40
2018-04-24T04:56:44.675Z,149.50
2018-04-24T04:58:16.487Z,148.90
2018-04-24T04:59:48.357Z,156.50
2018-04-24T05:01:20.110Z,159.00
2018-04-24T05:02:51.922Z,145.40
2018-04-24T05:04:23.735Z,152.20
2018-04-24T05:05:55.546Z,149.90
2018-04-24T05:07:27.358Z,143.10
2018-04-24T05:08:59.170Z,155.00
2018-04-24T05:10:31.533Z,145.70
2018-04-24T05:12:02.839Z,139.20
2018-04-24T05:13:34.606Z,150.10
2018-04-24T05:15:06.417Z,165.80
2018-04-24T05:16:38.230Z,163.30
2018-04-24T05:18:10.043Z,178.10
2018-04-24T05:19:41.854Z,189.00
2018-04-24T05:21:13.665Z,182.40
2018-04-24T05:22:45.577Z,181.00
2018-04-24T05:24:17.289Z,179.20
2018-04-24T05:25:49.100Z,159.00
2018-04-24T05:27:20.913Z,163.60
2018-04-24T05:28:53.028Z,135.80
2018-04-24T05:30:24.537Z,167.70
2018-04-24T05:31:56.349Z,205.70
2018-04-24T05:33:28.164Z,198.50
2018-04-24T05:34:59.973Z,184.40
2018-04-24T05:36:31.784Z,186.30
2018-04-24T05:38:03.596Z,168.50
2018-04-24T05:39:35.411Z,161.50
2018-04-24T05:41:07.223Z,145.90
2018-04-24T05:42:39.032Z,192.20
2018-04-24T05:44:10.848Z,182.60
2018-04-24T05:45:42.655Z,182.20
2018-04-24T05:47:14.568Z,166.60
2018-04-24T05:48:46.279Z,157.80
2018-04-24T05:50:18.144Z,127.00
2018-04-24T05:51:49.903Z,172.50
2018-04-24T05:53:21.816Z,148.40
2018-04-24T05:54:53.528Z,138.90
2018-04-24T05:56:25.340Z,124.80
2018-04-24T05:57:57.152Z,127.30
2018-04-24T05:59:29.114Z,135.40
2018-04-24T06:01:00.775Z,149.90
2018-04-24T06:02:32.593Z,139.30
2018-04-24T06:04:04.400Z,138.80
2018-04-24T06:05:36.317Z,135.30
2018-04-24T06:07:08.028Z,126.50
2018-04-24T06:08:39.891Z,165.70
2018-04-24T06:10:11.647Z,156.40
2018-04-24T06:11:43.459Z,148.00
2018-04-24T06:13:15.271Z,121.50
2018-04-24T06:14:47.083Z,142.30
2018-04-24T06:16:18.896Z,127.80
2018-04-24T06:17:50.707Z,148.00
2018-04-24T06:19:22.519Z,147.20
2018-04-24T06:20:54.333Z,143.20
2018-04-24T06:22:26.145Z,143.40
2018-04-24T06:23:58.156Z,134.90
2018-04-24T06:25:29.766Z,126.50
2018-04-24T06:27:01.587Z,139.50
2018-04-24T06:28:33.502Z,133.90
2018-04-24T06:30:05.353Z,136.30
2018-04-24T06:31:37.015Z,127.90
2018-04-24T06:33:08.826Z,147.30
2018-04-24T06:34:40.638Z,119.50
2018-04-24T06:36:12.450Z,128.00
2018-04-24T06:37:44.262Z,142.20
2018-04-24T06:39:16.074Z,136.70
2018-04-24T06:40:47.886Z,122.40
2018-04-24T06:42:19.860Z,140.60
2018-04-24T06:43:51.514Z,156.40
2018-04-24T06:45:23.320Z,131.10
2018-04-24T06:46:55.132Z,136.10
2018-04-24T06:48:26.943Z,129.10
2018-04-24T06:49:58.755Z,146.60
2018-04-24T06:51:30.567Z,155.50
2018-04-24T06:53:02.378Z,156.40
2018-04-24T06:54:34.295Z,147.80
2018-04-24T06:56:06.002Z,140.80
2018-04-24T06:57:37.814Z,142.10
2018-04-24T06:59:09.627Z,160.90
2018-04-24T07:00:41.863Z,166.60
2018-04-24T07:02:13.249Z,142.20
2018-04-24T07:03:45.061Z,161.90
2018-04-24T07:05:16.873Z,166.40
2018-04-24T07:06:48.684Z,151.00
2018-04-24T07:08:20.495Z,149.90
2018-04-24T07:09:52.309Z,150.90
2018-04-24T07:11:24.123Z,164.60
2018-04-24T07:12:55.931Z,165.10
2018-04-24T07:14:27.742Z,178.60
2018-04-24T07:15:59.553Z,169.90
2018-04-24T07:17:31.366Z,133.00
2018-04-24T07:19:03.282Z,135.70
2018-04-24T07:20:34.989Z,169.40
2018-04-24T07:22:06.800Z,198.40
2018-04-24T07:23:38.612Z,160.00
2018-04-24T07:25:10.578Z,156.80
2018-04-24T07:26:42.239Z,156.80
2018-04-24T07:28:14.048Z,153.20
2018-04-24T07:29:45.859Z,155.30
2018-04-24T07:31:17.920Z,158.40
2018-04-24T07:32:49.489Z,137.90
2018-04-24T07:34:21.293Z,141.20
2018-04-24T07:35:53.107Z,147.90
2018-04-24T07:37:25.016Z,164.50
2018-04-24T07:38:56.728Z,145.00
2018-04-24T07:40:28.538Z,142.00
2018-04-24T07:42:00.350Z,174.40
2018-04-24T07:43:32.161Z,183.60
2018-04-24T07:45:03.975Z,183.40
2018-04-24T07:46:35.873Z,189.20
2018-04-24T07:48:07.599Z,178.70
2018-04-24T07:49:39.406Z,159.70
2018-04-24T07:51:11.217Z,156.20
2018-04-24T07:52:43.028Z,140.70
2018-04-24T07:54:14.840Z,162.80
2018-04-24T07:55:46.902Z,156.80
2018-04-24T07:57:18.462Z,152.30
2018-04-24T07:58:50.276Z,146.70
2018-04-24T08:00:22.085Z,159.00
2018-04-24T08:01:54.350Z,185.10
2018-04-24T08:03:25.709Z,166.50
2018-04-24T08:04:57.520Z,158.40
2018-04-24T08:06:29.331Z,166.60
2018-04-24T08:08:01.142Z,197.60
2018-04-24T08:09:32.954Z,205.80
2018-04-24T08:11:04.766Z,207.40
2018-04-24T08:12:36.577Z,233.90
2018-04-24T08:14:08.489Z,218.70
2018-04-24T08:15:40.202Z,197.00
2018-04-24T08:17:12.011Z,168.80
2018-04-24T08:18:43.823Z,179.00
2018-04-24T08:20:15.634Z,172.00
2018-04-24T08:21:47.445Z,178.70
2018-04-24T08:23:19.257Z,211.00
2018-04-24T08:24:51.072Z,218.90
2018-04-24T08:26:23.030Z,179.50
2018-04-24T08:27:54.690Z,204.30
2018-04-24T08:29:26.503Z,179.60
2018-04-24T08:30:58.465Z,172.80
2018-04-24T08:32:30.225Z,167.00
2018-04-24T08:34:01.937Z,208.30
2018-04-24T08:35:33.749Z,232.40
2018-04-24T08:37:05.564Z,187.80
2018-04-24T08:38:37.371Z,172.60
2018-04-24T08:40:09.273Z,182.90
2018-04-24T08:41:40.995Z,182.20
2018-04-24T08:43:12.806Z,167.70
2018-04-24T08:44:44.617Z,173.50
2018-04-24T08:46:16.481Z,207.10
2018-04-24T08:47:48.249Z,231.00
2018-04-24T08:49:20.052Z,263.90
2018-04-24T08:50:52.172Z,252.00
2018-04-24T08:52:23.675Z,201.30
2018-04-24T08:53:55.485Z,236.10
2018-04-24T08:55:27.297Z,232.40
2018-04-24T08:56:59.258Z,240.10
2018-04-24T08:58:30.919Z,223.50
2018-04-24T09:00:02.730Z,182.20
2018-04-24T09:01:34.544Z,165.20
2018-04-24T09:03:06.359Z,171.50
2018-04-24T09:04:38.165Z,159.10
2018-04-24T09:06:09.975Z,155.80
2018-04-24T09:07:41.787Z,150.60
2018-04-24T09:09:13.698Z,169.50
2018-04-24T09:10:45.409Z,183.90
2018-04-24T09:12:17.220Z,214.80
2018-04-24T09:13:49.032Z,252.00
2018-04-24T09:15:20.844Z,198.80
2018-04-24T09:16:52.655Z,181.20
2018-04-24T09:18:24.470Z,178.40
2018-04-24T09:19:56.277Z,202.10
2018-04-24T09:21:28.089Z,194.70
2018-04-24T09:22:59.900Z,193.20
2018-04-24T09:24:31.710Z,168.80
2018-04-24T09:26:03.521Z,166.60
2018-04-24T09:27:35.433Z,158.00
2018-04-24T09:29:07.143Z,166.40
2018-04-24T09:30:38.955Z,160.30
2018-04-24T09:32:10.794Z,176.10
2018-04-24T09:33:42.943Z,173.70
2018-04-24T09:35:14.389Z,175.40
2018-04-24T09:36:46.201Z,180.40
2018-04-24T09:38:18.013Z,178.30
2018-04-24T09:39:49.827Z,172.50
2018-04-24T09:41:21.636Z,157.70
2018-04-24T09:44:25.261Z,163.40
2018-04-24T09:45:57.230Z,160.10
2018-04-24T09:47:28.881Z,175.70
2018-04-24T09:49:00.783Z,169.80
2018-04-24T09:50:32.508Z,166.00
2018-04-24T09:52:04.320Z,170.10
2018-04-24T09:53:36.126Z,164.30
2018-04-24T09:55:07.945Z,151.10
2018-04-24T09:56:39.778Z,151.50
2018-04-24T09:58:11.561Z,165.90
2018-04-24T09:59:43.677Z,171.30
2018-04-24T10:01:15.185Z,145.40
2018-04-24T10:02:46.997Z,155.60
2018-04-24T10:04:18.910Z,151.10
2018-04-24T10:05:50.630Z,155.10
2018-04-24T10:07:22.433Z,140.40
2018-04-24T10:08:54.452Z,128.60
2018-04-24T10:11:57.902Z,129.20
2018-04-24T10:13:29.710Z,135.30
2018-04-24T10:15:01.505Z,131.00
2018-04-24T10:16:33.310Z,132.80
2018-04-24T10:18:05.127Z,132.80
2018-04-24T10:19:36.935Z,131.90
2018-04-24T10:21:08.748Z,127.00
2018-04-24T10:22:40.561Z,129.50
2018-04-24T10:24:12.474Z,116.60
2018-04-24T10:25:44.390Z,118.20
2018-04-24T10:28:47.814Z,97.20
2018-04-24T10:30:19.627Z,90.60
2018-04-24T10:31:51.441Z,88.70
2018-04-24T10:34:55.069Z,79.40
2018-04-24T10:36:26.883Z,78.30
2018-04-24T10:37:58.698Z,76.00
2018-04-24T10:39:30.514Z,64.40
2018-04-24T10:41:02.330Z,66.10
2018-04-24T10:42:34.245Z,62.40
2018-04-24T10:44:05.964Z,57.60
2018-04-24T10:45:38.082Z,59.50
2018-04-24T10:47:09.643Z,55.20
2018-04-24T10:48:41.412Z,58.10
2018-04-24T10:50:13.229Z,50.30
2018-04-24T10:51:45.085Z,54.30
2018-04-24T10:53:16.879Z,53.20
2018-04-24T10:54:48.680Z,54.40
2018-04-24T10:57:52.316Z,51.70
2018-04-24T10:59:24.609Z,49.40
2018-04-24T11:00:56.250Z,51.20
2018-04-24T11:02:28.294Z,52.40
2018-04-24T11:03:59.611Z,46.30
2018-04-24T11:05:31.395Z,44.60
2018-04-24T11:07:03.211Z,41.40
2018-04-24T11:08:35.027Z,45.40
2018-04-24T11:11:38.863Z,43.40
2018-04-24T11:13:10.477Z,38.80
2018-04-24T11:14:42.498Z,37.20
2018-04-24T11:16:14.338Z,41.00
2018-04-24T11:17:46.667Z,33.00
2018-04-24T11:19:17.846Z,33.80
2018-04-24T11:20:49.565Z,30.70
2018-04-24T11:22:21.384Z,33.70
2018-04-24T11:23:53.205Z,32.10
2018-04-24T11:25:25.023Z,32.80
2018-04-24T11:26:56.842Z,32.40
2018-04-24T11:28:28.663Z,34.90
2018-04-24T11:31:32.301Z,34.40
2018-04-24T11:34:35.969Z,30.40
2018-04-24T11:36:08.067Z,30.30
2018-04-24T11:37:39.680Z,30.60
2018-04-24T11:39:11.404Z,27.80
2018-04-24T11:40:43.255Z,29.00
2018-04-24T11:42:15.039Z,29.50
2018-04-24T11:43:46.957Z,28.40
2018-04-24T11:45:18.770Z,28.30
2018-04-24T11:46:50.562Z,28.00
2018-04-24T11:48:22.522Z,27.40
2018-04-24T11:49:54.672Z,29.90
2018-04-24T11:51:25.961Z,28.10
2018-04-24T11:52:57.985Z,27.60
2018-04-24T11:54:29.603Z,27.60
2018-04-24T11:56:01.528Z,24.70
2018-04-24T11:57:33.246Z,25.00
2018-04-24T11:59:05.067Z,27.50
2018-04-24T12:00:36.889Z,25.60
2018-04-24T12:02:09.210Z,23.30
2018-04-24T12:03:40.659Z,23.30
2018-04-24T12:06:44.222Z,25.00
2018-04-24T12:08:16.369Z,20.80
2018-04-24T12:09:48.346Z,22.90
2018-04-24T12:11:19.638Z,22.00
2018-04-24T12:12:51.468Z,24.30
2018-04-24T12:14:23.380Z,25.20
2018-04-24T12:15:55.101Z,21.90
2018-04-24T12:17:26.923Z,26.90
2018-04-24T12:18:58.747Z,22.50
2018-04-24T12:20:30.569Z,24.70
2018-04-24T12:22:02.389Z,22.50
2018-04-24T12:23:34.429Z,24.30
2018-04-24T12:26:37.856Z,26.00
2018-04-24T12:28:09.678Z,22.50
2018-04-24T12:29:42.009Z,23.60
2018-04-24T12:31:13.356Z,22.60
2018-04-24T12:32:45.697Z,21.90
2018-04-24T12:34:17.030Z,25.50
2018-04-24T12:35:48.823Z,22.50
2018-04-24T12:37:20.719Z,22.40
2018-04-24T12:38:52.987Z,23.50
2018-04-24T12:41:56.406Z,22.40
2018-04-24T12:43:27.903Z,21.00
2018-04-24T12:44:59.726Z,21.80
2018-04-24T12:46:31.764Z,21.30
2018-04-24T12:48:03.371Z,20.60
2018-04-24T12:51:07.120Z,20.90
2018-04-24T12:52:38.839Z,19.60
2018-04-24T12:54:10.663Z,21.90
2018-04-24T12:55:42.724Z,21.50
2018-04-24T12:57:14.309Z,20.70
2018-04-24T12:58:46.132Z,21.50
2018-04-24T13:00:18.103Z,20.90
2018-04-24T13:01:49.780Z,22.00
2018-04-24T13:03:21.606Z,19.90
2018-04-24T13:04:53.430Z,18.60
2018-04-24T13:06:25.251Z,17.20
2018-04-24T13:07:57.079Z,17.70
2018-04-24T13:09:29.003Z,20.20
2018-04-24T13:11:00.723Z,19.90
2018-04-24T13:12:32.857Z,20.30
2018-04-24T13:14:04.371Z,20.80
2018-04-24T13:15:36.709Z,20.60
2018-04-24T13:18:39.847Z,19.90
2018-04-24T13:20:11.667Z,19.90
2018-04-24T13:21:43.492Z,20.40
2018-04-24T13:23:15.342Z,21.20
2018-04-24T13:24:47.267Z,21.00
2018-04-24T13:26:18.963Z,22.00
2018-04-24T13:27:50.889Z,20.50
2018-04-24T13:29:22.612Z,18.30
2018-04-24T13:30:54.439Z,19.60
2018-04-24T13:32:26.259Z,19.20
2018-04-24T13:33:58.083Z,19.40
2018-04-24T13:35:29.910Z,18.40
2018-04-24T13:37:02.036Z,20.60
2018-04-24T13:38:33.557Z,19.90
2018-04-24T13:40:05.409Z,20.90
2018-04-24T13:43:09.120Z,22.60
2018-04-24T13:44:40.905Z,20.50
2018-04-24T13:46:12.781Z,19.50
2018-04-24T13:47:44.504Z,21.30
2018-04-24T13:49:16.532Z,21.70
2018-04-24T13:50:48.163Z,21.10
2018-04-24T13:52:19.980Z,21.70
2018-04-24T13:53:51.803Z,19.80
2018-04-24T13:55:23.700Z,20.10
2018-04-24T13:56:55.454Z,19.60
2018-04-24T13:58:27.277Z,21.40
2018-04-24T13:59:59.102Z,20.60
2018-04-24T14:01:30.926Z,18.80
2018-04-24T14:03:02.756Z,19.10
2018-04-24T14:04:34.678Z,16.70
2018-04-24T14:06:06.404Z,16.20
2018-04-24T14:07:38.230Z,18.90
2018-04-24T14:09:10.054Z,18.60
2018-04-24T14:10:42.588Z,17.10
2018-04-24T14:12:13.738Z,18.70
2018-04-24T14:13:45.530Z,17.70
2018-04-24T14:15:17.356Z,21.50
2018-04-24T14:18:21.007Z,16.80
2018-04-24T14:19:52.832Z,16.50
2018-04-24T14:21:24.686Z,16.80
2018-04-24T14:22:56.485Z,17.00
2018-04-24T14:26:00.235Z,15.40
2018-04-24T14:27:32.416Z,15.70
2018-04-24T14:29:03.883Z,16.60
2018-04-24T14:30:35.616Z,14.50
2018-04-24T14:32:07.440Z,16.90
2018-04-24T14:33:39.266Z,18.00
2018-04-24T14:35:11.097Z,16.90
2018-04-24T14:36:42.924Z,18.40
2018-04-24T14:38:14.745Z,15.80
2018-04-24T14:41:18.770Z,16.20
2018-04-24T14:44:22.387Z,15.40
2018-04-24T14:45:53.911Z,14.90
2018-04-24T14:47:25.704Z,15.80
2018-04-24T14:48:57.531Z,16.50
2018-04-24T14:52:01.187Z,15.20
2018-04-24T14:53:33.537Z,15.00
2018-04-24T14:55:05.009Z,15.30
2018-04-24T14:56:36.691Z,13.30
2018-04-24T14:58:08.697Z,13.70
2018-04-24T15:01:12.357Z,15.00
2018-04-24T15:02:44.084Z,14.90
2018-04-24T15:04:15.901Z,15.30
2018-04-24T15:05:47.628Z,15.10
2018-04-24T15:07:19.460Z,13.80
2018-04-24T15:08:51.283Z,13.80
2018-04-24T15:10:23.110Z,13.10
2018-04-24T15:11:54.938Z,11.50
2018-04-24T15:13:26.766Z,11.60
2018-04-24T15:14:58.594Z,11.20
2018-04-24T15:16:30.423Z,11.80
2018-04-24T15:18:02.881Z,11.70
2018-04-24T15:21:05.910Z,11.90
2018-04-24T15:22:37.834Z,10.50
2018-04-24T15:24:09.561Z,10.40
2018-04-24T15:25:41.388Z,9.90
2018-04-24T15:27:13.217Z,9.50
2018-04-24T15:28:45.048Z,9.20
2018-04-24T15:30:16.870Z,8.90
2018-04-24T15:31:48.702Z,6.20
2018-04-24T15:33:20.522Z,6.90
2018-04-24T15:34:52.609Z,7.80
2018-04-24T15:36:24.391Z,9.40
2018-04-24T15:37:56.452Z,9.30
2018-04-24T15:39:27.828Z,8.10
2018-04-24T15:40:59.756Z,6.50
2018-04-24T15:42:31.482Z,6.50
2018-04-24T15:44:03.310Z,7.50
2018-04-24T15:45:35.138Z,7.60
2018-04-24T15:47:06.965Z,7.30
2018-04-24T15:48:38.793Z,8.10
2018-04-24T15:50:10.621Z,7.40
2018-04-24T15:51:42.654Z,8.30
2018-04-24T15:53:14.275Z,7.40
2018-04-24T15:54:46.840Z,7.40
2018-04-24T15:56:18.232Z,6.90
2018-04-24T15:57:49.754Z,7.40
2018-04-24T15:59:21.682Z,7.30
2018-04-24T16:00:53.406Z,7.40
2018-04-24T16:02:25.232Z,7.20
2018-04-24T16:03:57.056Z,7.30
2018-04-24T16:05:28.880Z,7.10
2018-04-24T16:07:00.706Z,7.40
2018-04-24T16:08:32.564Z,6.40
2018-04-24T16:10:04.556Z,6.40
2018-04-24T16:11:36.484Z,5.80
2018-04-24T16:13:08.005Z,5.90
2018-04-24T16:14:40.359Z,5.20
2018-04-24T16:16:12.068Z,4.90
2018-04-24T16:17:43.582Z,3.60
2018-04-24T16:19:15.318Z,4.20
2018-04-24T16:20:47.133Z,2.20
2018-04-24T16:22:18.964Z,2.90
2018-04-24T16:23:51.318Z,3.90
2018-04-24T16:25:22.614Z,3.60
2018-04-24T16:28:26.622Z,3.20
2018-04-24T16:29:58.480Z,4.10
2018-04-24T16:31:30.129Z,4.20
2018-04-24T16:33:02.057Z,4.60
2018-04-24T16:34:33.661Z,4.40
2018-04-24T16:36:05.508Z,4.60
2018-04-24T16:37:37.705Z,4.90
2018-04-24T16:39:09.066Z,4.50
2018-04-24T16:40:40.889Z,4.20
2018-04-24T16:42:12.751Z,7.90
2018-04-24T16:43:44.922Z,18.00
2018-04-24T16:46:48.626Z,19.30
2018-04-24T16:49:51.867Z,17.90
2018-04-24T16:51:23.696Z,20.40
2018-04-24T16:52:55.521Z,21.90
2018-04-24T16:54:27.367Z,23.60
2018-04-24T16:55:59.481Z,23.10
2018-04-24T16:57:31.006Z,19.20
2018-04-24T16:59:02.833Z,18.40
2018-04-24T17:00:34.728Z,17.90
2018-04-24T17:02:06.487Z,18.00
2018-04-24T17:03:38.619Z,17.10
2018-04-24T17:05:10.446Z,17.20
2018-04-24T17:06:42.171Z,18.00
2018-04-24T17:08:13.795Z,17.00
2018-04-24T17:09:46.131Z,17.50
2018-04-24T17:11:17.491Z,17.20
2018-04-24T17:12:49.275Z,17.20
2018-04-24T17:14:21.202Z,17.40
2018-04-24T17:15:52.928Z,17.80
2018-04-24T17:17:24.757Z,17.80
2018-04-24T17:18:56.584Z,18.40
2018-04-24T17:20:28.408Z,17.00
2018-04-24T17:22:00.356Z,17.10
2018-04-24T17:23:32.355Z,16.80
2018-04-24T17:25:03.882Z,16.50
2018-04-24T17:26:35.708Z,16.60
2018-04-24T17:29:39.468Z,16.60
2018-04-24T17:31:11.240Z,16.80
2018-04-24T17:32:43.163Z,16.50
2018-04-24T17:34:14.858Z,16.20
2018-04-24T17:35:46.664Z,16.90
2018-04-24T17:37:18.624Z,17.50
2018-04-24T17:38:50.902Z,17.30
2018-04-24T17:41:54.698Z,17.80
2018-04-24T17:44:57.668Z,16.50
2018-04-24T17:46:29.449Z,15.70
2018-04-24T17:48:01.265Z,17.00
2018-04-24T17:49:33.130Z,16.60
2018-04-24T17:51:05.108Z,17.30
2018-04-24T17:52:37.213Z,16.60
2018-04-24T17:54:09.434Z,15.90
2018-04-24T17:55:40.390Z,18.00
2018-04-24T17:57:12.274Z,19.70
2018-04-24T17:58:44.242Z,17.00
2018-04-24T18:00:16.394Z,18.00
2018-04-24T18:01:47.688Z,17.00
2018-04-24T18:03:19.687Z,18.70
2018-04-24T18:04:51.340Z,18.60
2018-04-24T18:06:23.162Z,18.30
2018-04-24T18:07:54.985Z,17.50
2018-04-24T18:09:26.909Z,16.90
2018-04-24T18:10:58.666Z,19.20
2018-04-24T18:14:02.281Z,17.10
2018-04-24T18:15:34.444Z,17.40
2018-04-24T18:17:05.971Z,20.30
2018-04-24T18:18:37.786Z,19.50
2018-04-24T18:20:09.736Z,20.30
2018-04-24T18:21:41.534Z,19.80
2018-04-24T18:23:13.226Z,20.00
2018-04-24T18:24:45.178Z,20.10
2018-04-24T18:27:49.085Z,19.00
2018-04-24T18:29:20.517Z,17.40
2018-04-24T18:30:52.358Z,16.40
2018-04-24T18:32:24.312Z,16.70
2018-04-24T18:33:55.990Z,17.20
2018-04-24T18:35:28.115Z,18.20
2018-04-24T18:36:59.634Z,17.90
2018-04-24T18:38:31.489Z,17.20
2018-04-24T18:40:03.534Z,17.20
2018-04-24T18:41:35.157Z,16.60
2018-04-24T18:43:06.937Z,16.10
2018-04-24T18:44:38.752Z,17.10
2018-04-24T18:46:10.679Z,17.70
2018-04-24T18:47:42.396Z,17.30
2018-04-24T18:52:17.864Z,16.40
2018-04-24T18:53:49.689Z,17.10
2018-04-24T18:55:21.509Z,15.70
2018-04-24T18:56:53.332Z,17.50
2018-04-24T18:59:57.351Z,16.40
2018-04-24T19:01:28.802Z,18.50
2018-04-24T19:03:00.624Z,17.00
2018-04-24T19:04:32.445Z,16.40
2018-04-24T19:06:04.469Z,17.80
2018-04-24T19:07:36.092Z,18.10
2018-04-24T19:09:07.986Z,17.10
2018-04-24T19:10:39.761Z,18.00
2018-04-24T19:12:11.594Z,18.00
2018-04-24T19:13:43.579Z,17.40
2018-04-24T19:15:15.198Z,18.00
2018-04-24T19:16:47.017Z,17.10
2018-04-24T19:18:18.873Z,20.40
2018-04-24T19:19:50.661Z,19.80
2018-04-24T19:21:22.483Z,20.20
2018-04-24T19:22:54.300Z,19.40
2018-04-24T19:24:26.371Z,20.30
2018-04-24T19:25:57.943Z,19.80
2018-04-24T19:27:30.836Z,20.90
2018-04-24T19:29:01.626Z,20.60
2018-04-24T19:30:33.403Z,21.90
2018-04-24T19:32:05.223Z,21.00
2018-04-24T19:33:37.079Z,21.30
2018-04-24T19:35:08.864Z,21.90
2018-04-24T19:36:40.684Z,23.30
2018-04-24T19:38:12.504Z,22.10
2018-04-24T19:39:44.324Z,21.50
2018-04-24T19:41:16.145Z,22.20
2018-04-24T19:42:48.114Z,22.60
2018-04-24T19:44:19.784Z,23.20
2018-04-24T19:45:51.604Z,22.80
2018-04-24T19:47:23.740Z,22.20
2018-04-24T19:48:55.243Z,22.50
2018-04-24T19:50:27.063Z,22.90
2018-04-24T19:51:58.886Z,22.90
2018-04-24T19:55:02.572Z,21.80
2018-04-24T19:56:34.339Z,22.10
2018-04-24T19:58:06.884Z,21.20
2018-04-24T19:59:37.977Z,23.00
2018-04-24T20:01:09.894Z,23.00
2018-04-24T20:02:41.612Z,23.10
2018-04-24T20:04:13.530Z,24.00
2018-04-24T20:05:45.254Z,23.00
2018-04-24T20:07:17.216Z,21.70
2018-04-24T20:08:48.985Z,21.20
2018-04-24T20:10:20.703Z,20.30
2018-04-24T20:11:53.023Z,22.50
2018-04-24T20:13:24.336Z,22.50
2018-04-24T20:14:56.185Z,21.90
2018-04-24T20:16:28.251Z,23.20
2018-04-24T20:17:59.800Z,20.60
2018-04-24T20:19:31.755Z,20.80
2018-04-24T20:21:03.426Z,20.50
2018-04-24T20:22:35.238Z,21.50
2018-04-24T20:24:07.056Z,21.50